< Typhoon 197622 1976 Season Typhoon 197624 >
Typhoon 197623 (MARGE)
General InformationTrack Information on Google Maps || Disaster Info.ResourceGoogle EarthGE AnimationAtom FeedGeoJSON
Detalied Best Track (Time Zone = UTC)
Year Month Day Hour Lat. Long. Pressure (hPa) Wind (kt) Class Image Chart
1976 11 4 06 6.0 150.0 1002 0 2 -- Chart
1976 11 4 12 6.9 149.5 1006 0 2 -- Chart
1976 11 4 18 7.4 149.0 1006 0 2 -- Chart
1976 11 5 00 8.0 148.0 1004 0 2 -- Chart
1976 11 5 06 8.2 145.4 1000 0 2 -- Chart
1976 11 5 12 8.5 143.5 1000 0 2 -- Chart
1976 11 5 18 9.0 142.0 1000 0 2 -- Chart
1976 11 6 00 10.5 141.4 1004 0 2 -- Chart
1976 11 6 06 11.0 139.0 1004 0 2 -- Chart
1976 11 6 12 11.0 137.0 1004 0 2 -- Chart
1976 11 6 18 11.5 134.7 1004 0 2 -- Chart
1976 11 7 00 12.6 134.0 1004 0 2 -- Chart
1976 11 7 06 14.1 132.5 1004 0 2 -- Chart
1976 11 7 12 15.0 131.0 1004 0 2 -- Chart
1976 11 7 18 16.1 129.6 1000 0 2 -- Chart
1976 11 8 00 16.9 128.7 992 0 2 -- Chart
1976 11 8 06 17.8 127.5 975 0 9 -- Chart
1976 11 8 12 18.9 127.0 980 0 9 -- Chart
1976 11 8 18 19.8 126.3 985 0 9 -- Chart
1976 11 9 00 20.7 125.8 985 0 9 -- Chart
1976 11 9 06 21.6 125.3 980 0 9 -- Chart
1976 11 9 12 22.4 125.1 985 0 9 -- Chart
1976 11 9 18 23.5 125.0 990 0 9 -- Chart
1976 11 10 00 24.8 125.0 996 0 2 -- Chart
1976 11 10 06 26.0 126.0 1000 0 2 -- Chart
1976 11 10 12 26.7 127.5 1000 0 2 -- Chart
1976 11 10 18 27.7 129.3 1000 0 2 -- Chart
1976 11 11 00 28.2 131.1 1000 0 2 -- Chart
1976 11 11 06 28.8 133.6 1000 0 6 -- Chart
1976 11 11 12 29.4 136.0 1000 0 6 -- Chart
1976 11 11 18 29.7 138.0 1002 0 6 -- Chart
1976 11 12 00 30.0 140.0 1006 0 6 -- Chart
1976 11 12 06 29.0 143.0 1008 0 6 -- Chart
1976 11 12 12 29.0 146.0 1012 0 6 -- Chart
1976 11 12 18 29.0 149.0 1014 0 6 -- Chart
Japan Meteorological Agency Best Track Data | Correction Date : 1992-10-21
< Typhoon 197622 1976 Season Typhoon 197624 >

Help